createdAt,value
2017-02-20T04:00:43.909Z,1015.62
2017-02-20T04:01:09.503Z,1015.63
2017-02-20T04:01:35.184Z,1015.66
2017-02-20T04:02:00.802Z,1015.62
2017-02-20T04:02:26.360Z,1015.61
2017-02-20T04:02:52.019Z,1015.63
2017-02-20T04:03:17.598Z,1015.64
2017-02-20T04:03:43.147Z,1015.63
2017-02-20T04:04:08.699Z,1015.59
2017-02-20T04:04:34.262Z,1015.61
2017-02-20T04:04:59.813Z,1015.57
2017-02-20T04:05:25.411Z,1015.57
2017-02-20T04:05:50.971Z,1015.59
2017-02-20T04:06:16.523Z,1015.61
2017-02-20T04:06:42.082Z,1015.59
2017-02-20T04:07:07.820Z,1015.6
2017-02-20T04:07:33.365Z,1015.59
2017-02-20T04:07:58.972Z,1015.57
2017-02-20T04:08:24.533Z,1015.58
2017-02-20T04:08:50.104Z,1015.6
2017-02-20T04:09:15.690Z,1015.58
2017-02-20T04:09:41.287Z,1015.59
2017-02-20T04:10:06.857Z,1015.62
2017-02-20T04:10:32.389Z,1015.59
2017-02-20T04:10:57.945Z,1015.57
2017-02-20T04:11:23.519Z,1015.55
2017-02-20T04:11:49.174Z,1015.55
2017-02-20T04:12:14.813Z,1015.51
2017-02-20T04:12:40.360Z,1015.46
2017-02-20T04:13:06.163Z,1015.57
2017-02-20T04:13:31.725Z,1015.51
2017-02-20T04:13:57.290Z,1015.51
2017-02-20T04:14:22.853Z,1015.49
2017-02-20T04:14:48.410Z,1015.51
2017-02-20T04:15:13.984Z,1015.45
2017-02-20T04:15:39.551Z,1015.49
2017-02-20T04:16:05.102Z,1015.47
2017-02-20T04:16:30.759Z,1015.49
2017-02-20T04:16:56.350Z,1015.43
2017-02-20T04:17:21.902Z,1015.44
2017-02-20T04:17:47.478Z,1015.41
2017-02-20T04:18:13.038Z,1015.45
2017-02-20T04:18:38.624Z,1015.39
2017-02-20T04:19:04.183Z,1015.43
2017-02-20T04:19:29.778Z,1015.42
2017-02-20T04:19:55.344Z,1015.42
2017-02-20T04:20:20.925Z,1015.42
2017-02-20T04:20:46.506Z,1015.4
2017-02-20T04:21:12.207Z,1015.43
2017-02-20T04:21:37.794Z,1015.35
2017-02-20T04:22:03.354Z,1015.35
2017-02-20T04:22:28.990Z,1015.32
2017-02-20T04:22:54.562Z,1015.29
2017-02-20T04:23:20.122Z,1015.29
2017-02-20T04:23:45.690Z,1015.34
2017-02-20T04:24:44.112Z,1015.27
2017-02-20T04:25:09.705Z,1015.22
2017-02-20T04:25:35.286Z,1015.26
2017-02-20T04:26:00.827Z,1015.24
2017-02-20T04:26:26.362Z,1015.23
2017-02-20T04:26:51.906Z,1015.27
2017-02-20T04:27:17.440Z,1015.31
2017-02-20T04:27:42.994Z,1015.27
2017-02-20T04:28:08.540Z,1015.27
2017-02-20T04:28:34.074Z,1015.25
2017-02-20T04:28:59.781Z,1015.26
2017-02-20T04:29:25.364Z,1015.3
2017-02-20T04:29:50.922Z,1015.26
2017-02-20T04:30:16.490Z,1015.28
2017-02-20T04:30:42.185Z,1015.29
2017-02-20T04:31:07.761Z,1015.36
2017-02-20T04:31:33.337Z,1015.31
2017-02-20T04:31:58.895Z,1015.32
2017-02-20T04:32:24.466Z,1015.26
2017-02-20T04:32:50.034Z,1015.3
2017-02-20T04:33:15.633Z,1015.3
2017-02-20T04:33:41.208Z,1015.32
2017-02-20T04:34:06.770Z,1015.26
2017-02-20T04:34:32.335Z,1015.25
2017-02-20T04:34:57.935Z,1015.23
2017-02-20T04:35:23.499Z,1015.27
2017-02-20T04:35:49.082Z,1015.26
2017-02-20T04:36:14.685Z,1015.27
2017-02-20T04:36:40.214Z,1015.26
2017-02-20T04:37:05.781Z,1015.24
2017-02-20T04:37:31.338Z,1015.29
2017-02-20T04:37:56.893Z,1015.26
2017-02-20T04:38:22.614Z,1015.29
2017-02-20T04:38:48.198Z,1015.27
2017-02-20T04:39:13.768Z,1015.33
2017-02-20T04:39:39.362Z,1015.28
2017-02-20T04:40:04.914Z,1015.26
2017-02-20T04:40:30.483Z,1015.21
2017-02-20T04:40:56.046Z,1015.26
2017-02-20T04:41:21.614Z,1015.26
2017-02-20T04:41:47.201Z,1015.24
2017-02-20T04:42:12.781Z,1015.23
2017-02-20T04:42:38.341Z,1015.21
2017-02-20T04:43:03.913Z,1015.22
2017-02-20T04:43:29.482Z,1015.19
2017-02-20T04:43:55.052Z,1015.17
2017-02-20T04:44:20.633Z,1015.23
2017-02-20T04:44:46.214Z,1015.15
2017-02-20T04:45:11.759Z,1015.14
2017-02-20T04:45:37.341Z,1015.19
2017-02-20T04:46:02.901Z,1015.17
2017-02-20T04:46:28.453Z,1015.15
2017-02-20T04:46:54.062Z,1015.13
2017-02-20T04:47:19.612Z,1015.18
2017-02-20T04:47:45.159Z,1015.14
2017-02-20T04:48:10.726Z,1015.14
2017-02-20T04:48:36.291Z,1015.14
2017-02-20T04:49:01.851Z,1015.1
2017-02-20T04:49:27.493Z,1015.08
2017-02-20T04:49:53.052Z,1015.08
2017-02-20T04:50:18.610Z,1015.07
2017-02-20T04:50:44.286Z,1015.06
2017-02-20T04:51:09.895Z,1015.04
2017-02-20T04:51:35.445Z,1014.99
2017-02-20T04:52:01.123Z,1015.04
2017-02-20T04:52:26.699Z,1014.99
2017-02-20T04:52:52.263Z,1015.04
2017-02-20T04:53:17.841Z,1015.01
2017-02-20T04:53:43.404Z,1014.98
2017-02-20T04:54:08.968Z,1014.98
2017-02-20T04:54:34.528Z,1014.99
2017-02-20T04:55:00.094Z,1014.98
2017-02-20T04:55:25.659Z,1014.98
2017-02-20T04:55:51.317Z,1015.01
2017-02-20T04:56:16.863Z,1015.01
2017-02-20T04:56:42.420Z,1015
2017-02-20T04:57:08.012Z,1015.02
2017-02-20T04:57:33.581Z,1014.92
2017-02-20T04:57:59.145Z,1015
2017-02-20T04:58:24.707Z,1014.99
2017-02-20T04:58:50.316Z,1014.97
2017-02-20T04:59:15.883Z,1014.93
2017-02-20T04:59:41.440Z,1014.96
2017-02-20T05:00:07.013Z,1015.02
2017-02-20T05:00:32.564Z,1014.97
2017-02-20T05:00:58.174Z,1014.99
2017-02-20T05:01:23.766Z,1015.03
2017-02-20T05:01:49.347Z,1014.94
2017-02-20T05:02:14.925Z,1014.97
2017-02-20T05:02:40.659Z,1014.9
2017-02-20T05:03:06.209Z,1014.95
2017-02-20T05:03:31.783Z,1014.93
2017-02-20T05:03:57.335Z,1014.95
2017-02-20T05:04:23.009Z,1014.93
2017-02-20T05:04:48.578Z,1014.91
2017-02-20T05:05:14.237Z,1015
2017-02-20T05:05:39.874Z,1014.93
2017-02-20T05:06:05.436Z,1014.92
2017-02-20T05:06:31.074Z,1014.94
2017-02-20T05:06:56.635Z,1014.93
2017-02-20T05:07:22.182Z,1014.93
2017-02-20T05:07:47.741Z,1014.88
2017-02-20T05:08:13.483Z,1014.95
2017-02-20T05:08:39.066Z,1014.91
2017-02-20T05:09:04.624Z,1014.9
2017-02-20T05:09:30.216Z,1014.91
2017-02-20T05:09:55.796Z,1014.93
2017-02-20T05:10:21.365Z,1014.89
2017-02-20T05:10:46.947Z,1014.92
2017-02-20T05:11:12.606Z,1014.89
2017-02-20T05:11:38.174Z,1014.88
2017-02-20T05:12:03.725Z,1014.91
2017-02-20T05:12:29.293Z,1014.9
2017-02-20T05:12:54.867Z,1014.87
2017-02-20T05:13:20.464Z,1014.87
2017-02-20T05:13:46.043Z,1014.84
2017-02-20T05:14:11.603Z,1014.82
2017-02-20T05:14:37.214Z,1014.86
2017-02-20T05:15:02.864Z,1014.87
2017-02-20T05:15:28.432Z,1014.86
2017-02-20T05:15:54.063Z,1014.86
2017-02-20T05:16:19.611Z,1014.83
2017-02-20T05:16:45.188Z,1014.83
2017-02-20T05:17:10.746Z,1014.87
2017-02-20T05:17:36.328Z,1014.78
2017-02-20T05:18:02.075Z,1014.77
2017-02-20T05:18:27.626Z,1014.78
2017-02-20T05:18:53.206Z,1014.76
2017-02-20T05:19:18.861Z,1014.76
2017-02-20T05:19:44.426Z,1014.77
2017-02-20T05:20:10.039Z,1014.78
2017-02-20T05:20:35.609Z,1014.76
2017-02-20T05:21:01.195Z,1014.77
2017-02-20T05:21:26.770Z,1014.73
2017-02-20T05:21:52.473Z,1014.76
2017-02-20T05:22:18.047Z,1014.71
2017-02-20T05:22:43.616Z,1014.69
2017-02-20T05:23:09.312Z,1014.68
2017-02-20T05:23:34.883Z,1014.69
2017-02-20T05:24:00.444Z,1014.69
2017-02-20T05:24:26.015Z,1014.67
2017-02-20T05:24:51.701Z,1014.66
2017-02-20T05:25:17.258Z,1014.63
2017-02-20T05:25:42.838Z,1014.59
2017-02-20T05:26:08.407Z,1014.55
2017-02-20T05:26:33.972Z,1014.56
2017-02-20T05:26:59.548Z,1014.61
2017-02-20T05:27:25.102Z,1014.57
2017-02-20T05:27:50.663Z,1014.57
2017-02-20T05:28:16.233Z,1014.57
2017-02-20T05:28:41.900Z,1014.52
2017-02-20T05:30:00.983Z,1014.55
2017-02-20T05:30:26.536Z,1014.53
2017-02-20T05:30:52.091Z,1014.54
2017-02-20T05:31:17.641Z,1014.54
2017-02-20T05:31:43.264Z,1014.53
2017-02-20T05:32:08.833Z,1014.54
2017-02-20T05:32:34.384Z,1014.54
2017-02-20T05:32:59.958Z,1014.56
2017-02-20T05:33:25.620Z,1014.54
2017-02-20T05:33:51.182Z,1014.49
2017-02-20T05:34:16.751Z,1014.49
2017-02-20T05:34:42.315Z,1014.55
2017-02-20T05:35:07.856Z,1014.6
2017-02-20T05:35:33.390Z,1014.54
2017-02-20T05:35:58.972Z,1014.55
2017-02-20T05:36:24.520Z,1014.54
2017-02-20T05:36:50.065Z,1014.53
2017-02-20T05:37:15.694Z,1014.55
2017-02-20T05:37:41.262Z,1014.53
2017-02-20T05:38:06.810Z,1014.48
2017-02-20T05:38:32.352Z,1014.55
2017-02-20T05:38:57.924Z,1014.56
2017-02-20T05:39:23.481Z,1014.53
2017-02-20T05:39:49.128Z,1014.5
2017-02-20T05:40:14.692Z,1014.53
2017-02-20T05:40:40.394Z,1014.52
2017-02-20T05:41:06.025Z,1014.51
2017-02-20T05:41:31.596Z,1014.51
2017-02-20T05:41:57.152Z,1014.53
2017-02-20T05:42:22.746Z,1014.51
2017-02-20T05:42:48.313Z,1014.52
2017-02-20T05:43:14.003Z,1014.46
2017-02-20T05:43:39.572Z,1014.52
2017-02-20T05:44:05.147Z,1014.48
2017-02-20T05:44:30.790Z,1014.53
2017-02-20T05:44:56.430Z,1014.51
2017-02-20T05:45:22.049Z,1014.48
2017-02-20T05:45:47.610Z,1014.5
2017-02-20T05:46:13.214Z,1014.53
2017-02-20T05:46:38.819Z,1014.46
2017-02-20T05:47:04.407Z,1014.53
2017-02-20T05:47:29.942Z,1014.51
2017-02-20T05:47:55.624Z,1014.49
2017-02-20T05:48:21.185Z,1014.47
2017-02-20T05:48:46.745Z,1014.46
2017-02-20T05:49:12.304Z,1014.49
2017-02-20T05:49:37.863Z,1014.47
2017-02-20T05:50:03.425Z,1014.5
2017-02-20T05:50:28.991Z,1014.46
2017-02-20T05:50:54.561Z,1014.41
2017-02-20T05:51:20.185Z,1014.45
2017-02-20T05:51:45.806Z,1014.27
2017-02-20T05:52:11.346Z,1014.42
2017-02-20T05:52:36.910Z,1014.42
2017-02-20T05:53:02.488Z,1014.43
2017-02-20T05:53:28.045Z,1014.38
2017-02-20T05:53:53.601Z,1014.41
2017-02-20T05:54:19.151Z,1014.34
2017-02-20T05:54:44.710Z,1014.37
2017-02-20T05:55:10.314Z,1014.42
2017-02-20T05:55:35.894Z,1014.39
2017-02-20T05:56:01.447Z,1014.42
2017-02-20T05:56:27.026Z,1014.46
2017-02-20T05:56:52.601Z,1014.41
2017-02-20T05:57:18.214Z,1014.33
2017-02-20T05:57:43.784Z,1014.42
2017-02-20T05:58:09.355Z,1014.4
2017-02-20T05:58:34.996Z,1014.42
2017-02-20T05:59:00.585Z,1014.44
2017-02-20T05:59:26.161Z,1014.38
2017-02-20T05:59:51.725Z,1014.41
2017-02-20T06:00:17.407Z,1014.42
2017-02-20T06:00:42.975Z,1014.47
2017-02-20T06:01:08.559Z,1014.42
2017-02-20T06:01:34.148Z,1014.45
2017-02-20T06:01:59.787Z,1014.42
2017-02-20T06:02:25.349Z,1014.38
2017-02-20T06:02:50.903Z,1014.29
2017-02-20T06:03:16.568Z,1014.31
2017-02-20T06:03:42.132Z,1014.26
2017-02-20T06:04:07.693Z,1014.25
2017-02-20T06:04:33.247Z,1014.21
2017-02-20T06:04:58.915Z,1014.21
2017-02-20T06:05:24.446Z,1014.19
2017-02-20T06:05:50.127Z,1014.2
2017-02-20T06:06:15.711Z,1014.23
2017-02-20T06:06:41.263Z,1014.19
2017-02-20T06:07:49.841Z,1014.16
2017-02-20T06:08:15.415Z,1014.19
2017-02-20T06:08:41.014Z,1014.16
2017-02-20T06:09:06.638Z,1014.16
2017-02-20T06:09:32.203Z,1014.26
2017-02-20T06:09:57.901Z,1014.18
2017-02-20T06:10:23.481Z,1014.16
2017-02-20T06:10:49.059Z,1014.15
2017-02-20T06:11:14.612Z,1014.16
2017-02-20T06:11:40.171Z,1014.19
2017-02-20T06:12:05.751Z,1014.13
2017-02-20T06:12:31.326Z,1014.19
2017-02-20T06:12:56.888Z,1014.2
2017-02-20T06:13:22.449Z,1014.17
2017-02-20T06:13:48.004Z,1014.23
2017-02-20T06:14:13.666Z,1014.23
2017-02-20T06:14:39.244Z,1014.24
2017-02-20T06:15:04.819Z,1014.28
2017-02-20T06:15:30.427Z,1014.26
2017-02-20T06:15:56.019Z,1014.23
2017-02-20T06:16:21.594Z,1014.25
2017-02-20T06:16:47.279Z,1014.21
2017-02-20T06:17:12.851Z,1014.29
2017-02-20T06:17:38.433Z,1014.25
2017-02-20T06:18:04.023Z,1014.24
2017-02-20T06:18:29.675Z,1014.2
2017-02-20T06:18:55.234Z,1014.22
2017-02-20T06:19:20.806Z,1014.22
2017-02-20T06:19:46.379Z,1014.2
2017-02-20T06:20:11.942Z,1014.17
2017-02-20T06:20:37.510Z,1014.19
2017-02-20T06:21:03.060Z,1014.18
2017-02-20T06:21:28.621Z,1014.13
2017-02-20T06:21:54.182Z,1014.1
2017-02-20T06:22:19.781Z,1014.1
2017-02-20T06:22:45.345Z,1014.11
2017-02-20T06:23:10.906Z,1014.11
2017-02-20T06:23:36.480Z,1014.08
2017-02-20T06:24:02.052Z,1014.1
2017-02-20T06:24:27.636Z,1014.1
2017-02-20T06:24:53.206Z,1014.07
2017-02-20T06:25:18.770Z,1014.08
2017-02-20T06:25:44.428Z,1014.03
2017-02-20T06:26:10.016Z,1014.03
2017-02-20T06:26:35.599Z,1014.07
2017-02-20T06:27:01.241Z,1014.03
2017-02-20T06:27:26.888Z,1014
2017-02-20T06:27:52.465Z,1014
2017-02-20T06:28:18.036Z,1014.02
2017-02-20T06:28:43.670Z,1013.99
2017-02-20T06:29:09.233Z,1014.08
2017-02-20T06:29:34.785Z,1014.04
2017-02-20T06:30:00.352Z,1014.09
2017-02-20T06:30:26.035Z,1014.04
2017-02-20T06:30:51.608Z,1014.03
2017-02-20T06:31:17.260Z,1014.06
2017-02-20T06:31:42.831Z,1014.01
2017-02-20T06:32:08.389Z,1013.98
2017-02-20T06:32:34.060Z,1014.04
2017-02-20T06:32:59.627Z,1014.06
2017-02-20T06:33:25.193Z,1014.05
2017-02-20T06:33:50.766Z,1014.01
2017-02-20T06:34:16.329Z,1013.99
2017-02-20T06:34:41.902Z,1014
2017-02-20T06:35:07.566Z,1014.05
2017-02-20T06:35:33.055Z,1014.02
2017-02-20T06:35:58.624Z,1014.07
2017-02-20T06:36:24.182Z,1014
2017-02-20T06:36:49.787Z,1014
2017-02-20T06:37:15.350Z,1013.97
2017-02-20T06:37:40.922Z,1014.06
2017-02-20T06:38:06.596Z,1013.99
2017-02-20T06:38:32.161Z,1013.97
2017-02-20T06:38:57.719Z,1013.97
2017-02-20T06:39:23.374Z,1013.96
2017-02-20T06:39:49.031Z,1013.96
2017-02-20T06:40:14.632Z,1013.91
2017-02-20T06:40:40.263Z,1013.89
2017-02-20T06:41:05.832Z,1013.93
2017-02-20T06:41:31.422Z,1013.92
2017-02-20T06:41:57.086Z,1013.89
2017-02-20T06:42:22.685Z,1013.89
2017-02-20T06:42:48.254Z,1013.85
2017-02-20T06:43:13.844Z,1013.81
2017-02-20T06:43:39.399Z,1013.82
2017-02-20T06:44:04.955Z,1013.82
2017-02-20T06:44:30.526Z,1013.84
2017-02-20T06:44:56.094Z,1013.77
2017-02-20T06:45:21.654Z,1013.79
2017-02-20T06:45:47.219Z,1013.73
2017-02-20T06:46:12.825Z,1013.73
2017-02-20T06:46:38.389Z,1013.75
2017-02-20T06:47:03.941Z,1013.77
2017-02-20T06:47:29.584Z,1013.84
2017-02-20T06:47:55.152Z,1013.74
2017-02-20T06:48:20.832Z,1013.76
2017-02-20T06:48:46.441Z,1013.7
2017-02-20T06:49:12.008Z,1013.68
2017-02-20T06:49:37.571Z,1013.62
2017-02-20T06:50:03.266Z,1013.63
2017-02-20T06:50:28.824Z,1013.66
2017-02-20T06:50:54.376Z,1013.63
2017-02-20T06:51:19.945Z,1013.65
2017-02-20T06:51:45.636Z,1013.57
2017-02-20T06:52:11.187Z,1013.67
2017-02-20T06:52:36.752Z,1013.66
2017-02-20T06:53:02.431Z,1013.6
2017-02-20T06:53:27.986Z,1013.68
2017-02-20T06:53:53.546Z,1013.64
2017-02-20T06:54:19.125Z,1013.68
2017-02-20T06:54:44.707Z,1013.68
2017-02-20T06:55:10.267Z,1013.71
2017-02-20T06:55:35.817Z,1013.64
2017-02-20T06:56:01.420Z,1013.64
2017-02-20T06:56:27.063Z,1013.69
2017-02-20T06:56:52.660Z,1013.65
2017-02-20T06:57:18.228Z,1013.62
2017-02-20T06:57:43.795Z,1013.68
2017-02-20T06:58:09.464Z,1013.66
2017-02-20T06:58:35.023Z,1013.64
2017-02-20T06:59:00.592Z,1013.63
2017-02-20T06:59:26.189Z,1013.63
2017-02-20T06:59:51.816Z,1013.62
2017-02-20T07:00:17.379Z,1013.56
2017-02-20T07:01:20.903Z,1013.57
2017-02-20T07:01:46.502Z,1013.58
2017-02-20T07:02:12.076Z,1013.57
2017-02-20T07:02:37.678Z,1013.57
2017-02-20T07:03:03.265Z,1013.5
2017-02-20T07:03:28.821Z,1013.53
2017-02-20T07:03:54.444Z,1013.51
2017-02-20T07:04:20.022Z,1013.52
2017-02-20T07:04:45.579Z,1013.52
2017-02-20T07:05:11.129Z,1013.5
2017-02-20T07:05:36.657Z,1013.48
2017-02-20T07:06:02.213Z,1013.51
2017-02-20T07:06:27.778Z,1013.51
2017-02-20T07:06:53.318Z,1013.48
2017-02-20T07:07:18.875Z,1013.48
2017-02-20T07:07:44.451Z,1013.51
2017-02-20T07:08:10.027Z,1013.44
2017-02-20T07:08:35.595Z,1013.59
2017-02-20T07:09:01.170Z,1013.58
2017-02-20T07:09:26.744Z,1013.35
2017-02-20T07:09:52.329Z,1013.35
2017-02-20T07:10:17.868Z,1013.43
2017-02-20T07:10:43.418Z,1013.37
2017-02-20T07:11:08.985Z,1013.41
2017-02-20T07:11:34.573Z,1013.39
2017-02-20T07:12:00.129Z,1013.39
2017-02-20T07:12:25.765Z,1013.43
2017-02-20T07:12:51.316Z,1013.42
2017-02-20T07:13:16.880Z,1013.48
2017-02-20T07:13:42.440Z,1013.45
2017-02-20T07:14:08.031Z,1013.47
2017-02-20T07:14:33.606Z,1013.46
2017-02-20T07:14:59.247Z,1013.47
2017-02-20T07:15:24.825Z,1013.54
2017-02-20T07:15:50.401Z,1013.51
2017-02-20T07:16:15.969Z,1013.53
2017-02-20T07:16:41.539Z,1013.44
2017-02-20T07:17:07.097Z,1013.55
2017-02-20T07:17:32.729Z,1013.49
2017-02-20T07:17:58.294Z,1013.54
2017-02-20T07:18:23.865Z,1013.51
2017-02-20T07:18:49.415Z,1013.46
2017-02-20T07:19:14.990Z,1013.46
2017-02-20T07:19:40.569Z,1013.47
2017-02-20T07:20:06.130Z,1013.51
2017-02-20T07:20:31.705Z,1013.49
2017-02-20T07:20:57.265Z,1013.55
2017-02-20T07:21:22.851Z,1013.51
2017-02-20T07:21:48.437Z,1013.51
2017-02-20T07:22:14.002Z,1013.55
2017-02-20T07:22:39.578Z,1013.55
2017-02-20T07:23:05.158Z,1013.52
2017-02-20T07:23:30.758Z,1013.55
2017-02-20T07:23:56.345Z,1013.51
2017-02-20T07:24:21.937Z,1013.55
2017-02-20T07:24:47.506Z,1013.57
2017-02-20T07:25:13.081Z,1013.57
2017-02-20T07:25:38.635Z,1013.65
2017-02-20T07:26:04.241Z,1013.52
2017-02-20T07:26:29.848Z,1013.55
2017-02-20T07:26:55.407Z,1013.6
2017-02-20T07:27:21.070Z,1013.59
2017-02-20T07:27:46.652Z,1013.5
2017-02-20T07:28:12.202Z,1013.56
2017-02-20T07:28:37.768Z,1013.71
2017-02-20T07:29:03.323Z,1013.54
2017-02-20T07:29:28.902Z,1013.63
2017-02-20T07:29:54.468Z,1013.61
2017-02-20T07:30:20.054Z,1013.48
2017-02-20T07:30:45.587Z,1013.51
2017-02-20T07:31:11.218Z,1013.53
2017-02-20T07:31:36.849Z,1013.57
2017-02-20T07:32:02.437Z,1013.53
2017-02-20T07:32:27.988Z,1013.57
2017-02-20T07:32:53.536Z,1013.54
2017-02-20T07:33:19.085Z,1013.6
2017-02-20T07:33:44.639Z,1013.57
2017-02-20T07:34:10.225Z,1013.52
2017-02-20T07:34:35.793Z,1013.54
2017-02-20T07:35:01.373Z,1013.52
2017-02-20T07:35:27.057Z,1013.52
2017-02-20T07:35:52.612Z,1013.52
2017-02-20T07:36:18.220Z,1013.55
2017-02-20T07:36:43.824Z,1013.53
2017-02-20T07:37:09.383Z,1013.48
2017-02-20T07:37:35.081Z,1013.49
2017-02-20T07:38:00.665Z,1013.56
2017-02-20T07:38:26.233Z,1013.63
2017-02-20T07:38:51.837Z,1013.56
2017-02-20T07:39:17.443Z,1013.58
2017-02-20T07:39:43.016Z,1013.56
2017-02-20T07:40:08.590Z,1013.55
2017-02-20T07:40:34.202Z,1013.54
2017-02-20T07:40:59.867Z,1013.52
2017-02-20T07:41:25.389Z,1013.52
2017-02-20T07:41:51.066Z,1013.52
2017-02-20T07:42:16.646Z,1013.53
2017-02-20T07:42:42.207Z,1013.48
2017-02-20T07:43:07.770Z,1013.51
2017-02-20T07:43:33.452Z,1013.52
2017-02-20T07:43:59.016Z,1013.46
2017-02-20T07:44:24.572Z,1013.49
2017-02-20T07:44:50.218Z,1013.46
2017-02-20T07:45:15.816Z,1013.49
2017-02-20T07:45:41.383Z,1013.46
2017-02-20T07:46:06.942Z,1013.46
2017-02-20T07:46:32.617Z,1013.45
2017-02-20T07:46:58.174Z,1013.47
2017-02-20T07:47:23.805Z,1013.44
2017-02-20T07:47:49.379Z,1013.44
2017-02-20T07:48:15.005Z,1013.47
2017-02-20T07:48:40.567Z,1013.44
2017-02-20T07:49:06.256Z,1013.42
2017-02-20T07:49:31.860Z,1013.4
2017-02-20T07:49:57.416Z,1013.34
2017-02-20T07:50:23.124Z,1013.37
2017-02-20T07:50:48.684Z,1013.36
2017-02-20T07:51:14.252Z,1013.29
2017-02-20T07:51:39.841Z,1013.35
2017-02-20T07:52:05.475Z,1013.44
2017-02-20T07:52:31.052Z,1013.33
2017-02-20T07:52:56.622Z,1013.37
2017-02-20T07:53:22.223Z,1013.33
2017-02-20T07:53:47.852Z,1013.34
2017-02-20T07:54:13.409Z,1013.31
2017-02-20T07:54:38.985Z,1013.3
2017-02-20T07:55:04.644Z,1013.25
2017-02-20T07:55:30.213Z,1013.24
2017-02-20T07:55:55.771Z,1013.22
2017-02-20T07:56:21.505Z,1013.28
2017-02-20T07:56:47.073Z,1013.25
2017-02-20T07:57:12.644Z,1013.28
2017-02-20T07:57:38.284Z,1013.24
2017-02-20T07:58:03.854Z,1013.31
2017-02-20T07:58:29.432Z,1013.28
2017-02-20T07:58:55.105Z,1013.28
2017-02-20T07:59:20.752Z,1013.23
2017-02-20T07:59:46.326Z,1013.23
2017-02-20T08:00:11.866Z,1013.2
2017-02-20T08:00:37.458Z,1013.22
2017-02-20T08:01:03.009Z,1013.23
2017-02-20T08:01:28.572Z,1013.19
2017-02-20T08:01:54.188Z,1013.15
2017-02-20T08:02:19.882Z,1013.14
2017-02-20T08:02:45.439Z,1013.19
2017-02-20T08:03:11.020Z,1013.16
2017-02-20T08:03:36.580Z,1013.16
2017-02-20T08:04:02.140Z,1013.14
2017-02-20T08:04:27.721Z,1013.15
2017-02-20T08:04:53.297Z,1013.17
2017-02-20T08:05:18.851Z,1013.14
2017-02-20T08:05:44.437Z,1013.09
2017-02-20T08:06:10.040Z,1013.15
2017-02-20T08:06:35.591Z,1013.16
2017-02-20T08:07:01.259Z,1013.11
2017-02-20T08:07:26.827Z,1013.12
2017-02-20T08:07:52.382Z,1013.13
2017-02-20T08:08:17.966Z,1013.1
2017-02-20T08:08:43.671Z,1013.12
2017-02-20T08:09:09.236Z,1013.05
2017-02-20T08:09:34.810Z,1013.02
2017-02-20T08:10:00.375Z,1013.07
2017-02-20T08:10:26.067Z,1013.09
2017-02-20T08:10:51.838Z,1013.02
2017-02-20T08:11:17.391Z,1012.98
2017-02-20T08:11:42.959Z,1012.95
2017-02-20T08:12:08.570Z,1013.01
2017-02-20T08:12:34.133Z,1013
2017-02-20T08:12:59.731Z,1013.04
2017-02-20T08:13:25.313Z,1012.93
2017-02-20T08:13:50.871Z,1012.93
2017-02-20T08:14:16.482Z,1012.86
2017-02-20T08:14:42.049Z,1012.87
2017-02-20T08:15:07.644Z,1012.89
2017-02-20T08:15:33.273Z,1012.93
2017-02-20T08:15:58.862Z,1012.91
2017-02-20T08:16:24.413Z,1012.9
2017-02-20T08:16:50.097Z,1012.88
2017-02-20T08:17:15.730Z,1012.9
2017-02-20T08:17:41.285Z,1012.89
2017-02-20T08:18:06.847Z,1012.86
2017-02-20T08:18:32.524Z,1012.91
2017-02-20T08:18:58.095Z,1012.87
2017-02-20T08:19:23.686Z,1012.89
2017-02-20T08:19:49.335Z,1012.84
2017-02-20T08:20:14.916Z,1012.89
2017-02-20T08:20:40.473Z,1012.88
2017-02-20T08:21:06.113Z,1012.87
2017-02-20T08:21:31.771Z,1012.86
2017-02-20T08:21:57.356Z,1012.83
2017-02-20T08:22:22.928Z,1012.86
2017-02-20T08:22:48.563Z,1012.81
2017-02-20T08:23:14.145Z,1012.82
2017-02-20T08:23:39.705Z,1012.83
2017-02-20T08:24:05.270Z,1012.81
2017-02-20T08:24:30.917Z,1012.81
2017-02-20T08:24:56.463Z,1012.79
2017-02-20T08:25:22.038Z,1012.84
2017-02-20T08:25:47.622Z,1012.86
2017-02-20T08:26:13.183Z,1012.82
2017-02-20T08:26:38.758Z,1012.82
2017-02-20T08:27:04.325Z,1012.81
2017-02-20T08:27:29.932Z,1012.81
2017-02-20T08:27:55.511Z,1012.82
2017-02-20T08:28:21.103Z,1012.82
2017-02-20T08:28:46.687Z,1012.78
2017-02-20T08:29:12.250Z,1012.8
2017-02-20T08:29:37.897Z,1012.79
2017-02-20T08:30:03.455Z,1012.76
2017-02-20T08:30:29.021Z,1012.78
2017-02-20T08:30:54.716Z,1012.75
2017-02-20T08:31:20.279Z,1012.73
2017-02-20T08:31:45.850Z,1012.78
2017-02-20T08:32:11.420Z,1012.75
2017-02-20T08:32:37.002Z,1012.77
2017-02-20T08:33:02.580Z,1012.76
2017-02-20T08:33:28.292Z,1012.68
2017-02-20T08:33:53.902Z,1012.76
2017-02-20T08:34:19.536Z,1012.75
2017-02-20T08:34:45.107Z,1012.76
2017-02-20T08:35:10.726Z,1012.74
2017-02-20T08:35:36.284Z,1012.68
2017-02-20T08:36:01.865Z,1012.71
2017-02-20T08:37:10.587Z,1012.71
2017-02-20T08:37:36.167Z,1012.66
2017-02-20T08:38:01.948Z,1012.75
2017-02-20T08:38:27.500Z,1012.67
2017-02-20T08:38:53.087Z,1012.63
2017-02-20T08:39:18.657Z,1012.7
2017-02-20T08:39:44.215Z,1012.63
2017-02-20T08:40:09.774Z,1012.67
2017-02-20T08:40:35.330Z,1012.7
2017-02-20T08:41:00.901Z,1012.63
2017-02-20T08:41:26.451Z,1012.65
2017-02-20T08:41:52.014Z,1012.67
2017-02-20T08:42:17.625Z,1012.72
2017-02-20T08:42:43.177Z,1012.69
2017-02-20T08:43:08.732Z,1012.67
2017-02-20T08:43:34.296Z,1012.68
2017-02-20T08:43:59.866Z,1012.64
2017-02-20T08:44:25.444Z,1012.63
2017-02-20T08:44:51.066Z,1012.64
2017-02-20T08:45:16.615Z,1012.61
2017-02-20T08:45:42.192Z,1012.62
2017-02-20T08:46:07.834Z,1012.63
2017-02-20T08:46:33.403Z,1012.68
2017-02-20T08:46:59.111Z,1012.6
2017-02-20T08:47:24.673Z,1012.59
2017-02-20T08:47:50.235Z,1012.57
2017-02-20T08:48:15.798Z,1012.57
2017-02-20T08:48:41.454Z,1012.57
2017-02-20T08:49:07.014Z,1012.58
2017-02-20T08:49:32.551Z,1012.56
2017-02-20T08:49:58.121Z,1012.54
2017-02-20T08:50:23.679Z,1012.55
2017-02-20T08:50:49.254Z,1012.51
2017-02-20T08:51:14.802Z,1012.47
2017-02-20T08:51:40.350Z,1012.48
2017-02-20T08:52:05.889Z,1012.44
2017-02-20T08:52:31.461Z,1012.46
2017-02-20T08:52:56.996Z,1012.45
2017-02-20T08:53:22.587Z,1012.43
2017-02-20T08:53:48.151Z,1012.47
2017-02-20T08:54:13.711Z,1012.43
2017-02-20T08:54:39.279Z,1012.38
2017-02-20T08:55:04.853Z,1012.36
2017-02-20T08:55:30.392Z,1012.38
2017-02-20T08:55:55.990Z,1012.36
2017-02-20T08:56:21.546Z,1012.38
2017-02-20T08:56:47.111Z,1012.34
2017-02-20T08:57:12.745Z,1012.35
2017-02-20T08:57:38.314Z,1012.27
2017-02-20T08:58:03.937Z,1012.28
2017-02-20T08:58:29.554Z,1012.24
2017-02-20T08:58:55.108Z,1012.29
2017-02-20T09:00:51.550Z,1012.26
2017-02-20T09:01:17.126Z,1012.25
2017-02-20T09:01:42.694Z,1012.2
2017-02-20T09:02:08.262Z,1012.21
2017-02-20T09:02:33.834Z,1012.2
2017-02-20T09:02:59.401Z,1012.26
2017-02-20T09:03:25.023Z,1012.23
2017-02-20T09:03:50.595Z,1012.16
2017-02-20T09:04:16.167Z,1012.22
2017-02-20T09:04:41.839Z,1012.21
2017-02-20T09:05:07.404Z,1012.18
2017-02-20T09:05:32.959Z,1012.23
2017-02-20T09:05:58.514Z,1012.18
2017-02-20T09:06:24.060Z,1012.15
2017-02-20T09:06:49.606Z,1012.19
2017-02-20T09:07:15.180Z,1012.11
2017-02-20T09:07:40.846Z,1012.17
2017-02-20T09:08:06.426Z,1012.21
2017-02-20T09:08:32.048Z,1012.15
2017-02-20T09:08:57.784Z,1012.23
2017-02-20T09:09:23.488Z,1012.17
2017-02-20T09:09:49.084Z,1012.15
2017-02-20T09:10:14.619Z,1012.13
2017-02-20T09:10:40.198Z,1012.1
2017-02-20T09:11:05.782Z,1012.16
2017-02-20T09:11:31.346Z,1012.2
2017-02-20T09:11:56.923Z,1012.16
2017-02-20T09:12:22.557Z,1012.11
2017-02-20T09:12:48.116Z,1012.12
2017-02-20T09:13:13.683Z,1012.11
2017-02-20T09:13:39.260Z,1012.17
2017-02-20T09:14:04.822Z,1012.18
2017-02-20T09:14:30.483Z,1012.19
2017-02-20T09:14:56.073Z,1012.21
2017-02-20T09:15:21.633Z,1012.2
2017-02-20T09:15:47.193Z,1012.18